Time;durP1;ratioP1;P1;durP2;ratioP2;P2;SDS_P1;SDS_P2;PMS_P1;PMS_P2;Temp;Humidity;BMP_temperature;BMP_pressure;BME280_temperature;BME280_humidity;BME280_pressure;Samples;Min_cycle;Max_cycle;Signal;HPM_P1;HPM_P2
2023/12/13 00:00:23;;;;;;;1.15;0.50;;;;;;;;;;2091332;28;20047;-63
2023/12/13 00:01:24;;;;;;;1.20;0.80;;;;;;;;;;2090964;28;20033;-64
2023/12/13 00:02:24;;;;;;;1.17;0.80;;;;;;;;;;2091104;28;20385;-64
2023/12/13 00:03:25;;;;;;;1.00;0.70;;;;;;;;;;2090917;28;20040;-64
2023/12/13 00:04:26;;;;;;;1.10;0.60;;;;;;;;;;2090922;28;20036;-64
2023/12/13 00:05:27;;;;;;;1.20;0.80;;;;;;;;;;2090755;28;20461;-64
2023/12/13 00:06:28;;;;;;;1.02;0.63;;;;;;;;;;2090827;28;20048;-63
2023/12/13 00:07:28;;;;;;;1.00;0.50;;;;;;;;;;2090901;28;20036;-62
2023/12/13 00:08:29;;;;;;;0.88;0.60;;;;;;;;;;2090948;28;20048;-64
2023/12/13 00:09:30;;;;;;;1.40;0.60;;;;;;;;;;2090347;28;20033;-63
2023/12/13 00:10:30;;;;;;;1.20;0.70;;;;;;;;;;2090741;28;20374;-63
2023/12/13 00:11:31;;;;;;;1.05;0.70;;;;;;;;;;2090676;28;20040;-63
2023/12/13 00:12:32;;;;;;;1.17;0.73;;;;;;;;;;2090703;28;20049;-63
2023/12/13 00:13:33;;;;;;;1.20;0.70;;;;;;;;;;2091030;28;20056;-63
2023/12/13 00:14:34;;;;;;;1.73;0.93;;;;;;;;;;2090692;28;20046;-63
2023/12/13 00:15:35;;;;;;;0.55;0.50;;;;;;;;;;2090690;28;20044;-63
2023/12/13 00:16:37;;;;;;;1.35;0.73;;;;;;;;;;2090716;28;20040;-63
2023/12/13 00:17:37;;;;;;;1.23;0.68;;;;;;;;;;2090737;28;20044;-63
2023/12/13 00:18:38;;;;;;;1.17;0.70;;;;;;;;;;2090691;28;20029;-63
2023/12/13 00:19:39;;;;;;;0.50;0.43;;;;;;;;;;2090725;28;20534;-61
2023/12/13 00:20:39;;;;;;;0.85;0.60;;;;;;;;;;2090674;28;20037;-62
2023/12/13 00:21:40;;;;;;;1.13;0.47;;;;;;;;;;2090687;28;20041;-62
2023/12/13 00:22:41;;;;;;;0.50;0.47;;;;;;;;;;2090663;28;20048;-62
2023/12/13 00:23:46;;;;;;;1.15;0.68;;;;;;;;;;2090743;28;20029;-62
2023/12/13 00:24:46;;;;;;;1.52;0.63;;;;;;;;;;2090831;28;20041;-63
2023/12/13 00:25:47;;;;;;;1.20;0.70;;;;;;;;;;2090654;28;20480;-62
2023/12/13 00:26:49;;;;;;;0.80;0.50;;;;;;;;;;2090691;28;20041;-64
2023/12/13 00:27:51;;;;;;;0.80;0.60;;;;;;;;;;2090619;28;20037;-63
2023/12/13 00:28:52;;;;;;;0.65;0.60;;;;;;;;;;2090552;28;20025;-62
2023/12/13 00:29:53;;;;;;;1.05;0.50;;;;;;;;;;2090500;28;20473;-60
2023/12/13 00:30:53;;;;;;;0.57;0.50;;;;;;;;;;2090751;28;20063;-60
2023/12/13 00:31:54;;;;;;;0.95;0.52;;;;;;;;;;2090800;28;20036;-60
2023/12/13 00:32:55;;;;;;;2.53;0.60;;;;;;;;;;2090518;28;20091;-61
2023/12/13 00:33:56;;;;;;;1.08;0.70;;;;;;;;;;2090726;28;20017;-61
2023/12/13 00:34:56;;;;;;;1.13;0.82;;;;;;;;;;2090570;28;20044;-62
2023/12/13 00:35:57;;;;;;;0.70;0.60;;;;;;;;;;2090666;28;20044;-62
2023/12/13 00:36:58;;;;;;;1.02;0.65;;;;;;;;;;2090266;28;20454;-61
2023/12/13 00:37:59;;;;;;;3.00;0.85;;;;;;;;;;2090561;28;20052;-62
2023/12/13 00:38:59;;;;;;;1.90;0.80;;;;;;;;;;2090608;28;20032;-62
2023/12/13 00:40:00;;;;;;;2.58;0.57;;;;;;;;;;2090719;28;20484;-60
2023/12/13 00:41:01;;;;;;;1.48;0.70;;;;;;;;;;2090828;28;20036;-60
2023/12/13 00:42:02;;;;;;;1.60;0.60;;;;;;;;;;2090701;28;20021;-60
2023/12/13 00:43:02;;;;;;;1.20;0.75;;;;;;;;;;2090464;28;20040;-61
2023/12/13 00:44:03;;;;;;;0.93;0.50;;;;;;;;;;2090650;28;20489;-62
2023/12/13 00:45:04;;;;;;;0.68;0.50;;;;;;;;;;2090604;28;20033;-62
2023/12/13 00:46:05;;;;;;;1.10;0.70;;;;;;;;;;2090514;28;20045;-62
2023/12/13 00:47:06;;;;;;;0.90;0.45;;;;;;;;;;2090673;28;20029;-62
2023/12/13 00:48:07;;;;;;;1.27;0.45;;;;;;;;;;2090444;28;20056;-62
2023/12/13 00:49:08;;;;;;;1.45;0.60;;;;;;;;;;2090666;28;20033;-62
2023/12/13 00:50:09;;;;;;;3.50;0.75;;;;;;;;;;2090224;28;20049;-61
2023/12/13 00:51:19;;;;;;;0.47;0.47;;;;;;;;;;2089833;28;20057;-61
2023/12/13 00:52:19;;;;;;;3.35;0.70;;;;;;;;;;2092344;28;20032;-60
2023/12/13 00:53:20;;;;;;;1.42;0.63;;;;;;;;;;2089599;28;20029;-60
2023/12/13 00:54:21;;;;;;;2.58;0.60;;;;;;;;;;2090408;28;20029;-63
2023/12/13 00:55:22;;;;;;;1.13;0.70;;;;;;;;;;2090464;28;20052;-61
2023/12/13 00:56:22;;;;;;;1.08;0.70;;;;;;;;;;2090850;28;20481;-61
2023/12/13 00:57:23;;;;;;;0.95;0.70;;;;;;;;;;2090482;28;20021;-61
2023/12/13 00:58:24;;;;;;;2.33;0.70;;;;;;;;;;2090366;28;20162;-61
2023/12/13 00:59:25;;;;;;;0.90;0.70;;;;;;;;;;2090793;28;20021;-61
2023/12/13 01:00:25;;;;;;;2.83;1.00;;;;;;;;;;2090431;28;20051;-59
2023/12/13 01:01:26;;;;;;;2.33;0.77;;;;;;;;;;2090081;28;20058;-61
2023/12/13 01:02:30;;;;;;;1.23;0.80;;;;;;;;;;2090676;28;20116;-61
2023/12/13 01:03:30;;;;;;;0.80;0.50;;;;;;;;;;2090358;28;20029;-62
2023/12/13 01:04:34;;;;;;;1.45;0.70;;;;;;;;;;2090344;28;20029;-62
2023/12/13 01:05:35;;;;;;;0.40;0.40;;;;;;;;;;2090242;28;20044;-62
2023/12/13 01:06:35;;;;;;;0.75;0.50;;;;;;;;;;2090415;28;20381;-61
2023/12/13 01:07:36;;;;;;;0.85;0.50;;;;;;;;;;2090301;28;20029;-61
2023/12/13 01:08:37;;;;;;;0.20;0.20;;;;;;;;;;2090412;28;20220;-60
2023/12/13 01:09:41;;;;;;;2.28;0.47;;;;;;;;;;2089724;28;20037;-60
2023/12/13 01:10:41;;;;;;;1.30;0.63;;;;;;;;;;2090442;28;20045;-60
2023/12/13 01:11:42;;;;;;;0.52;0.43;;;;;;;;;;2090674;28;20477;-62
2023/12/13 01:12:43;;;;;;;2.05;0.40;;;;;;;;;;2090373;28;20058;-61
2023/12/13 01:13:45;;;;;;;1.77;0.47;;;;;;;;;;2090613;28;20021;-62
2023/12/13 01:14:46;;;;;;;1.45;0.38;;;;;;;;;;2090693;28;20025;-62
2023/12/13 01:15:46;;;;;;;1.00;0.32;;;;;;;;;;2089807;28;20447;-61
2023/12/13 01:16:47;;;;;;;0.52;0.30;;;;;;;;;;2089935;28;20052;-63
2023/12/13 01:17:48;;;;;;;0.95;0.52;;;;;;;;;;2090277;28;20461;-63
2023/12/13 01:18:49;;;;;;;1.60;0.22;;;;;;;;;;2090637;28;20017;-63
2023/12/13 01:19:51;;;;;;;0.98;0.17;;;;;;;;;;2090308;28;20048;-62
2023/12/13 01:20:52;;;;;;;0.17;0.17;;;;;;;;;;2090276;28;20021;-63
2023/12/13 01:21:53;;;;;;;1.85;0.40;;;;;;;;;;2090414;28;20483;-63
2023/12/13 01:22:54;;;;;;;0.32;0.30;;;;;;;;;;2090928;28;20033;-63
2023/12/13 01:23:54;;;;;;;0.30;0.30;;;;;;;;;;2090274;28;20120;-63
2023/12/13 01:24:55;;;;;;;0.38;0.30;;;;;;;;;;2090395;28;20040;-63
2023/12/13 01:25:56;;;;;;;0.47;0.30;;;;;;;;;;2089673;28;20497;-64
2023/12/13 01:27:00;;;;;;;0.10;0.10;;;;;;;;;;2089600;28;20036;-63
2023/12/13 01:28:00;;;;;;;0.55;0.30;;;;;;;;;;2089976;28;20424;-63
2023/12/13 01:29:01;;;;;;;0.10;0.10;;;;;;;;;;2090284;28;20041;-64
2023/12/13 01:30:03;;;;;;;0.55;0.40;;;;;;;;;;2090076;28;20033;-64
2023/12/13 01:31:07;;;;;;;0.47;0.22;;;;;;;;;;2090405;28;20025;-63
2023/12/13 01:32:08;;;;;;;0.47;0.28;;;;;;;;;;2089873;28;20041;-64
2023/12/13 01:33:08;;;;;;;0.45;0.20;;;;;;;;;;2089880;28;20049;-64
2023/12/13 01:34:09;;;;;;;1.33;0.40;;;;;;;;;;2090254;28;20040;-64
2023/12/13 01:35:10;;;;;;;0.70;0.45;;;;;;;;;;2090491;28;20056;-63
2023/12/13 01:36:11;;;;;;;1.08;0.13;;;;;;;;;;2090232;28;20404;-62
2023/12/13 01:37:11;;;;;;;0.73;0.15;;;;;;;;;;2090340;28;20032;-62
2023/12/13 01:38:12;;;;;;;1.08;0.30;;;;;;;;;;2090232;28;20044;-62
2023/12/13 01:39:14;;;;;;;1.00;0.20;;;;;;;;;;2090319;28;20465;-62
2023/12/13 01:40:15;;;;;;;0.35;0.20;;;;;;;;;;2090181;28;20041;-64
2023/12/13 01:41:16;;;;;;;0.43;0.22;;;;;;;;;;2090752;28;20435;-64
2023/12/13 01:42:16;;;;;;;0.22;0.20;;;;;;;;;;2090154;28;20052;-65
2023/12/13 01:43:21;;;;;;;0.20;0.20;;;;;;;;;;2090359;28;20566;-64
2023/12/13 01:44:22;;;;;;;0.65;0.38;;;;;;;;;;2090265;28;20396;-63
2023/12/13 01:45:22;;;;;;;0.30;0.30;;;;;;;;;;2090162;28;20037;-64
2023/12/13 01:46:23;;;;;;;0.82;0.22;;;;;;;;;;2090300;28;20041;-64
2023/12/13 01:47:24;;;;;;;0.43;0.20;;;;;;;;;;2090158;28;20055;-64
2023/12/13 01:48:25;;;;;;;0.57;0.30;;;;;;;;;;2089679;28;20393;-64
2023/12/13 01:49:26;;;;;;;0.20;0.17;;;;;;;;;;2090404;28;20501;-64
2023/12/13 01:50:27;;;;;;;0.60;0.30;;;;;;;;;;2091883;28;20033;-64
2023/12/13 01:51:28;;;;;;;2.67;0.40;;;;;;;;;;2091596;28;20029;-64
2023/12/13 01:52:29;;;;;;;0.77;0.20;;;;;;;;;;2091099;28;20051;-64
2023/12/13 01:53:29;;;;;;;0.55;0.30;;;;;;;;;;2091200;28;20037;-64
2023/12/13 01:54:30;;;;;;;0.75;0.30;;;;;;;;;;2091848;28;20037;-65
2023/12/13 01:55:31;;;;;;;0.45;0.20;;;;;;;;;;2091672;28;20378;-64
2023/12/13 01:56:32;;;;;;;0.20;0.20;;;;;;;;;;2092453;28;20045;-64
2023/12/13 01:57:33;;;;;;;0.22;0.22;;;;;;;;;;2091730;28;20378;-63
2023/12/13 01:58:36;;;;;;;1.98;0.35;;;;;;;;;;2091992;28;20477;-64
2023/12/13 01:59:37;;;;;;;0.50;0.28;;;;;;;;;;2090997;28;20048;-64
2023/12/13 02:00:38;;;;;;;0.60;0.40;;;;;;;;;;2090764;28;20045;-64
2023/12/13 02:01:39;;;;;;;0.40;0.30;;;;;;;;;;2090831;28;20382;-63
2023/12/13 02:02:39;;;;;;;0.32;0.20;;;;;;;;;;2091471;28;20029;-64
2023/12/13 02:03:40;;;;;;;0.28;0.28;;;;;;;;;;2091829;28;20041;-64
2023/12/13 02:04:41;;;;;;;2.08;0.40;;;;;;;;;;2091756;28;20040;-61
2023/12/13 02:05:42;;;;;;;0.82;0.47;;;;;;;;;;2091558;28;20056;-64
2023/12/13 02:06:43;;;;;;;0.82;0.40;;;;;;;;;;2091256;28;20041;-63
2023/12/13 02:07:44;;;;;;;0.77;0.38;;;;;;;;;;2092016;28;20036;-64
2023/12/13 02:08:44;;;;;;;0.90;0.50;;;;;;;;;;2091740;28;20037;-63
2023/12/13 02:09:45;;;;;;;1.42;0.55;;;;;;;;;;2091314;28;20044;-62
2023/12/13 02:10:47;;;;;;;1.05;0.45;;;;;;;;;;2092057;28;20491;-63
2023/12/13 02:11:49;;;;;;;1.10;0.60;;;;;;;;;;2091717;28;20060;-64
2023/12/13 02:12:50;;;;;;;1.08;0.50;;;;;;;;;;2091667;28;20044;-64
2023/12/13 02:13:51;;;;;;;1.02;0.60;;;;;;;;;;2090712;28;20036;-64
2023/12/13 02:14:52;;;;;;;1.02;0.63;;;;;;;;;;2091394;28;20036;-64
2023/12/13 02:15:53;;;;;;;2.15;0.68;;;;;;;;;;2091054;28;20052;-64
2023/12/13 02:16:53;;;;;;;1.08;0.60;;;;;;;;;;2091065;28;20025;-64
2023/12/13 02:17:54;;;;;;;1.23;0.80;;;;;;;;;;2091700;28;20025;-63
2023/12/13 02:18:55;;;;;;;2.55;0.70;;;;;;;;;;2091955;28;20472;-63
2023/12/13 02:19:55;;;;;;;0.63;0.43;;;;;;;;;;2091876;28;20024;-64
2023/12/13 02:20:56;;;;;;;1.70;0.50;;;;;;;;;;2091848;28;20045;-63
2023/12/13 02:21:57;;;;;;;1.80;0.50;;;;;;;;;;2091810;28;20047;-63
2023/12/13 02:22:58;;;;;;;1.98;0.52;;;;;;;;;;2091669;28;20060;-63
2023/12/13 02:24:00;;;;;;;1.20;0.40;;;;;;;;;;2091597;28;20477;-63
2023/12/13 02:25:01;;;;;;;1.33;0.70;;;;;;;;;;2091302;28;20041;-63
2023/12/13 02:26:02;;;;;;;0.93;0.63;;;;;;;;;;2090991;28;20108;-63
2023/12/13 02:27:03;;;;;;;0.70;0.40;;;;;;;;;;2091131;28;20037;-64
2023/12/13 02:28:04;;;;;;;2.15;0.40;;;;;;;;;;2091616;28;20029;-64
2023/12/13 02:29:05;;;;;;;0.60;0.30;;;;;;;;;;2091546;28;20025;-65
2023/12/13 02:30:06;;;;;;;1.35;0.40;;;;;;;;;;2091823;28;20369;-63
2023/12/13 02:31:07;;;;;;;1.17;0.45;;;;;;;;;;2091921;28;20041;-64
2023/12/13 02:32:08;;;;;;;2.40;0.60;;;;;;;;;;2091161;28;20476;-64
2023/12/13 02:33:08;;;;;;;1.08;0.50;;;;;;;;;;2090880;28;20035;-64
2023/12/13 02:34:09;;;;;;;1.73;0.40;;;;;;;;;;2091868;28;20025;-64
2023/12/13 02:35:10;;;;;;;2.45;0.47;;;;;;;;;;2091613;28;20032;-64
2023/12/13 02:36:10;;;;;;;1.95;0.60;;;;;;;;;;2091964;28;20033;-64
2023/12/13 02:37:11;;;;;;;1.30;0.38;;;;;;;;;;2091643;28;20037;-64
2023/12/13 02:38:12;;;;;;;3.03;0.55;;;;;;;;;;2092024;28;20037;-64
2023/12/13 02:39:13;;;;;;;1.67;0.30;;;;;;;;;;2091535;28;20362;-64
2023/12/13 02:40:14;;;;;;;2.38;0.68;;;;;;;;;;2091468;28;20491;-63
2023/12/13 02:41:14;;;;;;;1.90;0.52;;;;;;;;;;2091502;28;20029;-64
2023/12/13 02:42:15;;;;;;;1.85;0.40;;;;;;;;;;2091129;28;20048;-62
2023/12/13 02:43:16;;;;;;;1.92;0.43;;;;;;;;;;2091511;28;20448;-62
2023/12/13 02:44:17;;;;;;;1.05;0.38;;;;;;;;;;2091454;28;20487;-62
2023/12/13 02:45:17;;;;;;;1.20;0.20;;;;;;;;;;2091963;28;20136;-62
2023/12/13 02:46:18;;;;;;;1.67;0.47;;;;;;;;;;2091451;28;20049;-62
2023/12/13 02:47:21;;;;;;;0.25;0.10;;;;;;;;;;2091413;28;20052;-63
2023/12/13 02:48:21;;;;;;;1.08;0.32;;;;;;;;;;2091709;28;20037;-64
2023/12/13 02:49:24;;;;;;;1.95;0.35;;;;;;;;;;2091418;28;20029;-64
2023/12/13 02:50:25;;;;;;;1.95;0.80;;;;;;;;;;2091736;28;20398;-64
2023/12/13 02:51:26;;;;;;;0.60;0.25;;;;;;;;;;2091573;28;20037;-64
2023/12/13 02:52:26;;;;;;;2.40;0.32;;;;;;;;;;2091579;28;20457;-64
2023/12/13 02:53:27;;;;;;;2.80;0.50;;;;;;;;;;2091285;28;20037;-64
2023/12/13 02:54:28;;;;;;;1.05;0.50;;;;;;;;;;2091414;28;20033;-64
2023/12/13 02:55:28;;;;;;;1.65;0.50;;;;;;;;;;2091272;28;20385;-64
2023/12/13 02:56:29;;;;;;;5.18;0.70;;;;;;;;;;2091513;28;20025;-63
2023/12/13 02:57:30;;;;;;;1.15;0.30;;;;;;;;;;2091678;28;20040;-64
2023/12/13 02:58:31;;;;;;;2.55;0.40;;;;;;;;;;2091346;28;20124;-63
2023/12/13 02:59:32;;;;;;;1.85;0.30;;;;;;;;;;2091201;28;20055;-63
2023/12/13 03:00:32;;;;;;;1.58;0.47;;;;;;;;;;2091444;28;20377;-64
2023/12/13 03:01:33;;;;;;;1.73;0.30;;;;;;;;;;2091769;28;20056;-64
2023/12/13 03:02:34;;;;;;;3.35;0.47;;;;;;;;;;2091638;28;20021;-63
2023/12/13 03:03:34;;;;;;;4.80;0.55;;;;;;;;;;2091421;28;20052;-63
2023/12/13 03:04:35;;;;;;;3.15;0.52;;;;;;;;;;2091369;28;20508;-63
2023/12/13 03:05:36;;;;;;;3.10;0.68;;;;;;;;;;2091367;28;20020;-63
2023/12/13 03:06:37;;;;;;;5.90;0.70;;;;;;;;;;2091110;28;20044;-63
2023/12/13 03:07:40;;;;;;;3.20;0.70;;;;;;;;;;2090860;28;20032;-63
2023/12/13 03:08:41;;;;;;;2.67;0.57;;;;;;;;;;2091147;28;20531;-63
2023/12/13 03:09:42;;;;;;;3.33;0.47;;;;;;;;;;2090407;28;20040;-63
2023/12/13 03:10:42;;;;;;;4.18;0.60;;;;;;;;;;2091446;28;20033;-63
2023/12/13 03:11:43;;;;;;;1.63;0.50;;;;;;;;;;2091336;28;20045;-63
2023/12/13 03:12:44;;;;;;;3.55;0.50;;;;;;;;;;2091294;28;20052;-63
2023/12/13 03:13:45;;;;;;;2.13;0.47;;;;;;;;;;2091163;28;20033;-63
2023/12/13 03:14:46;;;;;;;3.90;0.40;;;;;;;;;;2091082;28;20060;-63
2023/12/13 03:15:46;;;;;;;4.82;0.70;;;;;;;;;;2091481;28;20487;-62
2023/12/13 03:16:47;;;;;;;1.27;0.50;;;;;;;;;;2091031;28;20052;-63
2023/12/13 03:17:48;;;;;;;2.40;0.50;;;;;;;;;;2090581;28;20045;-63
2023/12/13 03:18:49;;;;;;;2.55;0.47;;;;;;;;;;2091414;28;20041;-63
2023/12/13 03:19:49;;;;;;;3.28;0.60;;;;;;;;;;2091203;28;20473;-63
2023/12/13 03:20:50;;;;;;;3.05;0.50;;;;;;;;;;2091478;28;20024;-63
2023/12/13 03:21:51;;;;;;;2.28;0.50;;;;;;;;;;2091288;28;20056;-63
2023/12/13 03:22:51;;;;;;;3.67;0.70;;;;;;;;;;2091303;28;20029;-63
2023/12/13 03:23:52;;;;;;;1.42;0.30;;;;;;;;;;2091164;28;20373;-63
2023/12/13 03:24:54;;;;;;;1.35;0.30;;;;;;;;;;2091538;28;20481;-63
2023/12/13 03:25:54;;;;;;;2.83;0.50;;;;;;;;;;2091152;28;20037;-63
2023/12/13 03:26:55;;;;;;;1.17;0.40;;;;;;;;;;2091283;28;20056;-63
2023/12/13 03:27:56;;;;;;;2.13;0.50;;;;;;;;;;2091366;28;20496;-62
2023/12/13 03:28:56;;;;;;;2.28;0.57;;;;;;;;;;2091072;28;20029;-63
2023/12/13 03:29:57;;;;;;;2.47;0.47;;;;;;;;;;2091164;28;20032;-63
2023/12/13 03:30:58;;;;;;;2.35;0.40;;;;;;;;;;2091408;28;20044;-63
2023/12/13 03:31:59;;;;;;;1.67;0.45;;;;;;;;;;2091104;28;20045;-63
2023/12/13 03:32:59;;;;;;;2.78;0.40;;;;;;;;;;2091097;28;20370;-63
2023/12/13 03:34:00;;;;;;;1.88;0.77;;;;;;;;;;2091125;28;20033;-63
2023/12/13 03:35:01;;;;;;;2.80;0.40;;;;;;;;;;2091331;28;20036;-63
2023/12/13 03:36:02;;;;;;;2.10;0.40;;;;;;;;;;2091242;28;20032;-63
2023/12/13 03:37:03;;;;;;;2.25;0.40;;;;;;;;;;2091823;28;20397;-63
2023/12/13 03:38:04;;;;;;;1.65;0.40;;;;;;;;;;2090771;28;20082;-63
2023/12/13 03:39:05;;;;;;;1.48;0.40;;;;;;;;;;2091211;28;20033;-63
2023/12/13 03:40:06;;;;;;;3.28;0.60;;;;;;;;;;2091544;28;20040;-63
2023/12/13 03:41:06;;;;;;;3.10;0.40;;;;;;;;;;2091284;28;20037;-63
2023/12/13 03:42:07;;;;;;;2.72;0.40;;;;;;;;;;2091018;28;20037;-63
2023/12/13 03:43:08;;;;;;;1.98;0.45;;;;;;;;;;2091404;28;20500;-63
2023/12/13 03:44:08;;;;;;;1.20;0.32;;;;;;;;;;2091307;28;20040;-63
2023/12/13 03:45:09;;;;;;;4.95;0.52;;;;;;;;;;2091085;28;20041;-63
2023/12/13 03:46:10;;;;;;;1.73;0.38;;;;;;;;;;2090734;28;20063;-63
2023/12/13 03:47:11;;;;;;;1.55;0.50;;;;;;;;;;2090977;28;20033;-63
2023/12/13 03:48:11;;;;;;;3.05;0.50;;;;;;;;;;2091026;28;20409;-63
2023/12/13 03:49:12;;;;;;;1.33;0.30;;;;;;;;;;2091007;28;20055;-63
2023/12/13 03:50:13;;;;;;;2.58;0.55;;;;;;;;;;2090784;28;20059;-63
2023/12/13 03:51:14;;;;;;;1.77;0.40;;;;;;;;;;2090637;28;20063;-63
2023/12/13 03:52:15;;;;;;;2.28;0.38;;;;;;;;;;2090825;28;20049;-63
2023/12/13 03:53:15;;;;;;;2.50;0.32;;;;;;;;;;2090894;28;20037;-63
2023/12/13 03:54:16;;;;;;;2.70;0.30;;;;;;;;;;2091127;28;20052;-64
2023/12/13 03:55:17;;;;;;;2.58;0.50;;;;;;;;;;2091182;28;20469;-63
2023/12/13 03:56:17;;;;;;;2.08;0.50;;;;;;;;;;2090585;28;20041;-63
2023/12/13 03:57:18;;;;;;;1.40;0.43;;;;;;;;;;2090876;28;20389;-63
2023/12/13 03:58:19;;;;;;;1.67;0.25;;;;;;;;;;2090831;28;20029;-62
2023/12/13 03:59:20;;;;;;;3.60;0.63;;;;;;;;;;2090855;28;20028;-62
2023/12/13 04:00:20;;;;;;;5.47;0.77;;;;;;;;;;2090692;28;20048;-62
2023/12/13 04:01:21;;;;;;;2.00;0.40;;;;;;;;;;2091056;28;20061;-62
2023/12/13 04:02:22;;;;;;;1.05;0.45;;;;;;;;;;2090971;28;20086;-62
2023/12/13 04:03:22;;;;;;;3.60;0.65;;;;;;;;;;2091257;28;20049;-62
2023/12/13 04:04:23;;;;;;;2.03;0.60;;;;;;;;;;2091195;28;20389;-62
2023/12/13 04:05:24;;;;;;;6.32;0.57;;;;;;;;;;2091157;28;20033;-62
2023/12/13 04:06:25;;;;;;;2.13;0.30;;;;;;;;;;2091211;28;20040;-62
2023/12/13 04:07:25;;;;;;;0.52;0.30;;;;;;;;;;2090799;28;20045;-62
2023/12/13 04:08:26;;;;;;;1.63;0.22;;;;;;;;;;2090988;28;20041;-62
2023/12/13 04:09:27;;;;;;;3.83;0.50;;;;;;;;;;2091278;28;20048;-62
2023/12/13 04:10:27;;;;;;;4.30;0.60;;;;;;;;;;2090745;28;20500;-62
2023/12/13 04:11:28;;;;;;;0.52;0.30;;;;;;;;;;2090698;28;20040;-61
2023/12/13 04:12:29;;;;;;;3.05;1.10;;;;;;;;;;2090427;28;20041;-62
2023/12/13 04:13:30;;;;;;;2.47;0.40;;;;;;;;;;2090744;28;20033;-62
2023/12/13 04:14:30;;;;;;;4.03;0.70;;;;;;;;;;2091284;28;20040;-62
2023/12/13 04:15:31;;;;;;;2.83;0.38;;;;;;;;;;2090728;28;20060;-64
2023/12/13 04:16:32;;;;;;;2.72;0.50;;;;;;;;;;2090741;28;20472;-64
2023/12/13 04:17:33;;;;;;;2.40;0.30;;;;;;;;;;2090695;28;20041;-63
2023/12/13 04:18:34;;;;;;;4.00;0.50;;;;;;;;;;2090688;28;20032;-64
2023/12/13 04:19:35;;;;;;;1.60;0.30;;;;;;;;;;2090513;28;20045;-62
2023/12/13 04:20:36;;;;;;;0.70;0.45;;;;;;;;;;2090984;28;20033;-62
2023/12/13 04:21:36;;;;;;;2.53;0.40;;;;;;;;;;2090858;28;20401;-61
2023/12/13 04:22:37;;;;;;;3.03;0.60;;;;;;;;;;2090024;28;20041;-62
2023/12/13 04:23:38;;;;;;;0.73;0.40;;;;;;;;;;2090084;28;20028;-62
2023/12/13 04:24:38;;;;;;;1.08;0.43;;;;;;;;;;2090941;28;20032;-63
2023/12/13 04:25:39;;;;;;;3.65;0.47;;;;;;;;;;2090811;28;20061;-64
2023/12/13 04:26:40;;;;;;;2.45;0.50;;;;;;;;;;2090732;28;20033;-62
2023/12/13 04:27:41;;;;;;;3.03;0.40;;;;;;;;;;2090671;28;20374;-63
2023/12/13 04:28:41;;;;;;;1.13;0.40;;;;;;;;;;2090681;28;20049;-63
2023/12/13 04:29:43;;;;;;;2.00;0.28;;;;;;;;;;2090625;28;20500;-63
2023/12/13 04:30:43;;;;;;;0.55;0.20;;;;;;;;;;2090503;28;20048;-63
2023/12/13 04:31:44;;;;;;;4.18;0.60;;;;;;;;;;2090654;28;20044;-64
2023/12/13 04:32:45;;;;;;;1.98;0.40;;;;;;;;;;2090776;28;20033;-63
2023/12/13 04:33:46;;;;;;;0.95;0.50;;;;;;;;;;2091053;28;20053;-64
2023/12/13 04:34:46;;;;;;;2.53;0.70;;;;;;;;;;2090538;28;20419;-63
2023/12/13 04:35:47;;;;;;;6.45;0.82;;;;;;;;;;2090564;28;20029;-63
2023/12/13 04:36:48;;;;;;;1.88;0.63;;;;;;;;;;2090529;28;20048;-62
2023/12/13 04:37:49;;;;;;;2.67;0.70;;;;;;;;;;2089402;28;20112;-63
2023/12/13 04:38:49;;;;;;;2.33;0.77;;;;;;;;;;2089738;28;20086;-63
2023/12/13 04:39:50;;;;;;;1.80;0.60;;;;;;;;;;2090346;28;20041;-62
2023/12/13 04:40:51;;;;;;;2.83;0.57;;;;;;;;;;2090570;28;20029;-63
2023/12/13 04:41:52;;;;;;;2.83;0.70;;;;;;;;;;2091234;28;20033;-63
2023/12/13 04:42:53;;;;;;;1.45;0.45;;;;;;;;;;2091023;28;20028;-63
2023/12/13 04:43:54;;;;;;;3.08;0.40;;;;;;;;;;2090518;28;20040;-62
2023/12/13 04:44:55;;;;;;;1.55;0.38;;;;;;;;;;2090552;28;20025;-63
2023/12/13 04:45:56;;;;;;;4.03;0.80;;;;;;;;;;2090573;28;20060;-63
2023/12/13 04:46:57;;;;;;;2.05;0.60;;;;;;;;;;2090597;28;20476;-64
2023/12/13 04:47:57;;;;;;;2.33;0.60;;;;;;;;;;2090456;28;20051;-63
2023/12/13 04:48:58;;;;;;;3.63;0.60;;;;;;;;;;2090055;28;20044;-64
2023/12/13 04:49:59;;;;;;;2.20;0.50;;;;;;;;;;2089861;28;20044;-63
2023/12/13 04:50:59;;;;;;;2.65;0.90;;;;;;;;;;2090920;28;20428;-63
2023/12/13 04:52:00;;;;;;;2.88;0.40;;;;;;;;;;2090435;28;20041;-63
2023/12/13 04:53:02;;;;;;;1.30;0.40;;;;;;;;;;2090955;28;20028;-63
2023/12/13 04:54:03;;;;;;;1.38;0.60;;;;;;;;;;2090387;28;20428;-62
2023/12/13 04:55:04;;;;;;;0.80;0.47;;;;;;;;;;2091132;28;20033;-63
2023/12/13 04:56:04;;;;;;;2.53;0.63;;;;;;;;;;2091134;28;20054;-63
2023/12/13 04:57:05;;;;;;;2.67;0.90;;;;;;;;;;2090410;28;20053;-62
2023/12/13 04:58:06;;;;;;;2.10;0.60;;;;;;;;;;2090394;28;20052;-63
2023/12/13 04:59:06;;;;;;;2.13;0.60;;;;;;;;;;2090640;28;20583;-63
2023/12/13 05:00:08;;;;;;;2.75;0.70;;;;;;;;;;2090541;28;20389;-63
2023/12/13 05:01:08;;;;;;;3.08;0.90;;;;;;;;;;2090526;28;20057;-61
2023/12/13 05:02:09;;;;;;;2.70;0.80;;;;;;;;;;2090176;28;20044;-63
2023/12/13 05:03:10;;;;;;;1.50;0.60;;;;;;;;;;2090487;28;20036;-63
2023/12/13 05:04:10;;;;;;;2.85;0.95;;;;;;;;;;2090540;28;20025;-62
2023/12/13 05:05:12;;;;;;;4.35;1.02;;;;;;;;;;2090323;28;20029;-61
2023/12/13 05:06:12;;;;;;;1.75;0.80;;;;;;;;;;2090694;28;20036;-61
2023/12/13 05:07:13;;;;;;;2.70;0.68;;;;;;;;;;2090677;28;20032;-62
2023/12/13 05:08:14;;;;;;;3.22;0.63;;;;;;;;;;2090276;28;20036;-61
2023/12/13 05:09:15;;;;;;;1.67;0.65;;;;;;;;;;2090548;28;20481;-62
2023/12/13 05:10:15;;;;;;;1.63;0.75;;;;;;;;;;2089699;28;20473;-63
2023/12/13 05:11:16;;;;;;;5.72;1.30;;;;;;;;;;2090663;28;20053;-62
2023/12/13 05:12:17;;;;;;;2.20;0.70;;;;;;;;;;2089792;28;20119;-64
2023/12/13 05:13:18;;;;;;;2.47;0.70;;;;;;;;;;2089960;28;20036;-62
2023/12/13 05:14:19;;;;;;;4.40;0.73;;;;;;;;;;2089863;28;20041;-63
2023/12/13 05:15:20;;;;;;;1.25;0.60;;;;;;;;;;2090092;28;20047;-62
2023/12/13 05:16:20;;;;;;;3.08;0.70;;;;;;;;;;2090062;28;20040;-61
2023/12/13 05:17:21;;;;;;;1.80;0.60;;;;;;;;;;2090325;28;20025;-62
2023/12/13 05:18:22;;;;;;;3.42;1.08;;;;;;;;;;2090197;28;20033;-61
2023/12/13 05:19:22;;;;;;;2.45;0.80;;;;;;;;;;2090174;28;20033;-64
2023/12/13 05:20:23;;;;;;;3.90;1.00;;;;;;;;;;2090826;28;20045;-64
2023/12/13 05:21:24;;;;;;;3.60;1.00;;;;;;;;;;2090252;28;20067;-64
2023/12/13 05:22:25;;;;;;;2.88;0.82;;;;;;;;;;2090393;28;20397;-62
2023/12/13 05:23:26;;;;;;;4.05;0.90;;;;;;;;;;2089706;28;20037;-62
2023/12/13 05:24:27;;;;;;;1.60;0.68;;;;;;;;;;2090050;28;20062;-65
2023/12/13 05:25:27;;;;;;;2.85;0.80;;;;;;;;;;2090862;28;20037;-62
2023/12/13 05:26:28;;;;;;;3.63;0.90;;;;;;;;;;2090422;28;20089;-64
2023/12/13 05:27:29;;;;;;;3.13;1.30;;;;;;;;;;2090518;28;20085;-61
2023/12/13 05:28:30;;;;;;;4.07;0.98;;;;;;;;;;2090212;28;20084;-63
2023/12/13 05:29:30;;;;;;;3.80;1.20;;;;;;;;;;2090621;28;20486;-64
2023/12/13 05:30:31;;;;;;;2.28;0.82;;;;;;;;;;2090011;28;20045;-62
2023/12/13 05:31:32;;;;;;;2.97;1.00;;;;;;;;;;2090631;28;20041;-62
2023/12/13 05:32:32;;;;;;;3.58;1.23;;;;;;;;;;2089936;28;20056;-64
2023/12/13 05:33:34;;;;;;;2.47;1.02;;;;;;;;;;2090366;28;20041;-62
2023/12/13 05:34:34;;;;;;;2.78;0.90;;;;;;;;;;2089622;28;20445;-63
2023/12/13 05:35:35;;;;;;;2.65;1.30;;;;;;;;;;2089582;28;20081;-63
2023/12/13 05:36:36;;;;;;;5.00;1.05;;;;;;;;;;2090253;28;20073;-62
2023/12/13 05:37:37;;;;;;;3.42;1.08;;;;;;;;;;2090193;28;20116;-61
2023/12/13 05:38:37;;;;;;;5.95;1.30;;;;;;;;;;2090140;28;20044;-61
2023/12/13 05:39:38;;;;;;;2.58;1.08;;;;;;;;;;2089894;28;20045;-62
2023/12/13 05:40:39;;;;;;;3.10;1.05;;;;;;;;;;2090214;28;20129;-62
2023/12/13 05:41:40;;;;;;;2.60;0.90;;;;;;;;;;2090575;28;20433;-62
2023/12/13 05:42:41;;;;;;;2.83;0.90;;;;;;;;;;2090467;28;20037;-62
2023/12/13 05:43:41;;;;;;;2.80;0.80;;;;;;;;;;2090207;28;20029;-61
2023/12/13 05:44:42;;;;;;;2.97;0.93;;;;;;;;;;2090508;28;20033;-62
2023/12/13 05:45:43;;;;;;;7.88;1.00;;;;;;;;;;2090189;28;20523;-61
2023/12/13 05:46:44;;;;;;;3.97;1.40;;;;;;;;;;2090388;28;20210;-63
2023/12/13 05:47:44;;;;;;;3.20;1.08;;;;;;;;;;2090835;28;20041;-63
2023/12/13 05:48:45;;;;;;;2.38;0.90;;;;;;;;;;2090039;28;20048;-61
2023/12/13 05:49:46;;;;;;;2.70;0.80;;;;;;;;;;2090184;28;20047;-63
2023/12/13 05:50:46;;;;;;;3.15;0.95;;;;;;;;;;2090191;28;20468;-61
2023/12/13 05:51:47;;;;;;;2.35;1.08;;;;;;;;;;2090762;28;20033;-61
2023/12/13 05:52:48;;;;;;;7.63;1.25;;;;;;;;;;2090236;28;20036;-61
2023/12/13 05:53:49;;;;;;;4.55;1.38;;;;;;;;;;2090155;28;20036;-61
2023/12/13 05:54:49;;;;;;;5.00;1.27;;;;;;;;;;2090055;28;20037;-63
2023/12/13 05:55:50;;;;;;;2.10;1.05;;;;;;;;;;2090509;28;20424;-63
2023/12/13 05:56:51;;;;;;;4.35;1.55;;;;;;;;;;2089975;28;20040;-63
2023/12/13 05:57:52;;;;;;;4.50;1.52;;;;;;;;;;2089918;28;20037;-64
2023/12/13 05:58:52;;;;;;;4.30;1.30;;;;;;;;;;2090513;28;20506;-63
2023/12/13 05:59:53;;;;;;;4.10;1.00;;;;;;;;;;2090226;28;20369;-63
2023/12/13 06:00:54;;;;;;;5.68;1.25;;;;;;;;;;2090411;28;20086;-63
2023/12/13 06:01:55;;;;;;;2.78;1.08;;;;;;;;;;2090062;28;20044;-63
2023/12/13 06:02:55;;;;;;;4.38;1.45;;;;;;;;;;2090305;28;20376;-64
2023/12/13 06:03:56;;;;;;;3.65;1.10;;;;;;;;;;2090617;28;20021;-63
2023/12/13 06:04:57;;;;;;;4.45;1.48;;;;;;;;;;2090179;28;20124;-62